createdAt,value
2019-01-02T00:02:35.405Z,101100.86
2019-01-02T00:07:37.636Z,101092.06
2019-01-02T00:12:40.254Z,101099.98
2019-01-02T00:17:43.708Z,101105.71
2019-01-02T00:22:46.917Z,101101.15
2019-01-02T00:27:49.675Z,101108.58
2019-01-02T00:32:52.594Z,101107.73
2019-01-02T00:37:55.295Z,101104.45
2019-01-02T00:42:57.756Z,101114.89
2019-01-02T00:48:00.396Z,101113.61
2019-01-02T00:53:02.971Z,101111.91
2019-01-02T00:58:06.265Z,101117.98
2019-01-02T01:03:09.059Z,101139.05
2019-01-02T01:08:11.983Z,101129.59
2019-01-02T01:13:15.055Z,101128.45
2019-01-02T01:18:18.646Z,101138.34
2019-01-02T01:23:21.087Z,101143.89
2019-01-02T01:28:23.965Z,101149.92
2019-01-02T01:33:26.101Z,101146.50
2019-01-02T01:38:28.210Z,101155.13
2019-01-02T01:43:31.294Z,101154.73
2019-01-02T01:48:34.200Z,101162.08
2019-01-02T01:53:36.815Z,101154.80
2019-01-02T01:58:39.677Z,101167.29
2019-01-02T02:03:41.856Z,101161.30
2019-01-02T02:08:44.028Z,101171.22
2019-01-02T02:13:46.424Z,101161.88
2019-01-02T02:18:50.053Z,101161.02
2019-01-02T02:23:52.464Z,101173.14
2019-01-02T02:28:55.164Z,101178.30
2019-01-02T02:33:57.824Z,101180.36
2019-01-02T02:39:00.771Z,101189.43
2019-01-02T02:44:03.449Z,101183.78
2019-01-02T02:49:06.885Z,101194.48
2019-01-02T02:54:10.176Z,101191.47
2019-01-02T02:59:13.001Z,101190.08
2019-01-02T03:04:16.417Z,101192.52
2019-01-02T03:09:19.478Z,101195.09
2019-01-02T03:14:21.749Z,101196.79
2019-01-02T03:19:24.990Z,101203.23
2019-01-02T03:24:28.078Z,101212.20
2019-01-02T03:29:30.685Z,101217.69
2019-01-02T03:34:33.499Z,101223.55
2019-01-02T03:39:36.450Z,101245.20
2019-01-02T03:44:38.665Z,101239.86
2019-01-02T03:49:41.056Z,101226.44
2019-01-02T03:54:43.732Z,101237.22
2019-01-02T03:59:45.901Z,101241.72
2019-01-02T04:04:48.052Z,101246.63
2019-01-02T04:09:50.674Z,101261.42
2019-01-02T04:14:52.839Z,101261.14
2019-01-02T04:19:54.998Z,101273.73
2019-01-02T04:24:57.172Z,101282.92
2019-01-02T04:29:59.563Z,101299.67
2019-01-02T04:35:01.777Z,101300.12
2019-01-02T04:40:07.209Z,101322.38
2019-01-02T04:45:09.988Z,101319.80
2019-01-02T04:50:13.874Z,101333.13
2019-01-02T04:55:16.729Z,101338.72
2019-01-02T05:00:19.289Z,101356.61
2019-01-02T05:05:21.948Z,101351.78
2019-01-02T05:10:24.069Z,101368.71
2019-01-02T05:15:26.726Z,101367.75
2019-01-02T05:20:29.659Z,101386.55
2019-01-02T05:25:32.200Z,101372.77
2019-01-02T05:30:35.097Z,101384.01
2019-01-02T05:35:37.290Z,101387.11
2019-01-02T05:40:39.476Z,101397.97
2019-01-02T05:45:41.792Z,101410.34
2019-01-02T05:50:44.002Z,101415.05
2019-01-02T05:55:46.612Z,101423.20
2019-01-02T06:00:49.531Z,101435.70
2019-01-02T06:05:52.307Z,101430.91
2019-01-02T06:10:55.002Z,101445.88
2019-01-02T06:15:57.888Z,101448.39
2019-01-02T06:21:00.047Z,101466.30
2019-01-02T06:26:02.297Z,101476.88
2019-01-02T06:31:04.811Z,101486.23
2019-01-02T06:36:06.950Z,101500.69
2019-01-02T06:41:09.157Z,101516.81
2019-01-02T06:46:11.340Z,101509.45
2019-01-02T06:51:14.417Z,101519.25
2019-01-02T06:56:16.656Z,101526.45
2019-01-02T07:01:19.546Z,101530.20
2019-01-02T07:06:22.595Z,101546.04
2019-01-02T07:11:25.645Z,101564.02
2019-01-02T07:16:27.937Z,101569.55
2019-01-02T07:21:30.868Z,101590.05
2019-01-02T07:26:33.250Z,101605.86
2019-01-02T07:31:35.948Z,101620.47
2019-01-02T07:37:24.746Z,101627.82
2019-01-02T07:42:59.921Z,101645.45
2019-01-02T07:48:31.157Z,101648.07
2019-01-02T07:54:04.952Z,101661.89
2019-01-02T07:59:21.893Z,101677.34
2019-01-02T08:05:15.880Z,101692.83
2019-01-02T08:11:17.436Z,101703.58
2019-01-02T08:17:00.545Z,101719.52
2019-01-02T08:23:09.412Z,101739.36
2019-01-02T08:29:16.575Z,101742.16
2019-01-02T08:34:58.933Z,101754.70
2019-01-02T08:40:22.224Z,101773.69
2019-01-02T08:46:14.346Z,101779.16
2019-01-02T08:52:21.230Z,101791.59
2019-01-02T08:58:39.571Z,101806.57
2019-01-02T09:04:42.108Z,101825.87
2019-01-02T09:10:37.368Z,101872.50
2019-01-02T09:16:39.531Z,101889.94
2019-01-02T09:22:17.121Z,101909.99
2019-01-02T09:28:10.640Z,101923.83
2019-01-02T09:34:03.998Z,101930.28
2019-01-02T09:39:48.623Z,101930.33
2019-01-02T09:45:45.779Z,101948.72
2019-01-02T09:51:54.202Z,101952.06
2019-01-02T09:57:41.583Z,101957.52
2019-01-02T10:03:50.936Z,101964.38
2019-01-02T10:09:31.923Z,101972.45
2019-01-02T10:15:53.335Z,101976.96
2019-01-02T10:21:51.827Z,101976.31
2019-01-02T10:27:22.734Z,101978.64
2019-01-02T10:32:57.524Z,101981.12
2019-01-02T10:38:21.404Z,101991.22
2019-01-02T10:44:09.611Z,101995.84
2019-01-02T10:49:56.996Z,102011.02
2019-01-02T10:55:54.229Z,102014.10
2019-01-02T11:01:42.127Z,102022.31
2019-01-02T11:07:17.483Z,102032.45
2019-01-02T11:13:13.955Z,102031.94
2019-01-02T11:19:18.120Z,102037.61
2019-01-02T11:25:02.408Z,102049.80
2019-01-02T11:31:00.759Z,102038.24
2019-01-02T11:36:33.828Z,102050.81
2019-01-02T11:42:06.377Z,102053.21
2019-01-02T11:47:08.859Z,102066.03
2019-01-02T11:52:12.001Z,102077.20
2019-01-02T11:57:14.372Z,102075.83
2019-01-02T12:02:17.265Z,102084.00
2019-01-02T12:07:20.366Z,102096.78
2019-01-02T12:12:22.586Z,102086.15
2019-01-02T12:17:24.781Z,102099.62
2019-01-02T12:22:27.666Z,102108.75
2019-01-02T12:27:30.332Z,102121.40
2019-01-02T12:32:32.706Z,102126.09
2019-01-02T12:37:35.416Z,102129.30
2019-01-02T12:42:37.616Z,102136.61
2019-01-02T12:47:39.791Z,102138.77
2019-01-02T12:52:42.040Z,102136.84
2019-01-02T12:57:44.171Z,102152.19
2019-01-02T13:03:08.713Z,102151.11
2019-01-02T13:09:06.042Z,102163.14
2019-01-02T13:15:08.816Z,102163.28
2019-01-02T13:21:25.105Z,102179.98
2019-01-02T13:26:54.259Z,102170.54
2019-01-02T13:32:31.694Z,102189.77
2019-01-02T13:38:23.657Z,102187.84
2019-01-02T13:43:55.812Z,102184.56
2019-01-02T13:49:40.582Z,102185.72
2019-01-02T13:54:43.004Z,102193.91
2019-01-02T13:59:45.682Z,102203.88
2019-01-02T14:04:48.135Z,102210.92
2019-01-02T14:09:50.356Z,102214.60
2019-01-02T14:14:52.519Z,102225.95
2019-01-02T14:19:55.383Z,102231.09
2019-01-02T14:24:58.524Z,102241.51
2019-01-02T14:30:01.255Z,102248.90
2019-01-02T14:35:04.190Z,102280.91
2019-01-02T14:40:06.807Z,102264.84
2019-01-02T14:45:09.353Z,102276.14
2019-01-02T14:50:11.714Z,102280.95
2019-01-02T14:55:14.033Z,102284.14
2019-01-02T15:00:16.424Z,102297.63
2019-01-02T15:05:19.134Z,102298.55
2019-01-02T15:10:21.509Z,102306.33
2019-01-02T15:15:24.404Z,102312.01
2019-01-02T15:20:26.933Z,102344.31
2019-01-02T15:25:29.362Z,102343.08
2019-01-02T15:30:31.661Z,102352.17
2019-01-02T15:35:35.550Z,102354.75
2019-01-02T15:40:38.560Z,102366.30
2019-01-02T15:45:41.170Z,102362.44
2019-01-02T15:50:44.366Z,102377.02
2019-01-02T15:55:47.194Z,102373.20
2019-01-02T16:00:49.527Z,102388.66
2019-01-02T16:05:51.984Z,102386.20
2019-01-02T16:10:54.063Z,102395.22
2019-01-02T16:15:56.319Z,102397.80
2019-01-02T16:20:59.666Z,102402.19
2019-01-02T16:26:02.409Z,102429.25
2019-01-02T16:31:04.628Z,102437.00
2019-01-02T16:36:07.442Z,102439.19
2019-01-02T16:41:10.141Z,102442.67
2019-01-02T16:46:12.987Z,102463.72
2019-01-02T16:51:17.388Z,102471.03
2019-01-02T16:56:20.083Z,102472.34
2019-01-02T17:01:23.372Z,102474.11
2019-01-02T17:06:25.526Z,102479.27
2019-01-02T17:11:28.167Z,102481.44
2019-01-02T17:16:30.759Z,102500.31
2019-01-02T17:21:32.998Z,102508.05
2019-01-02T17:26:35.634Z,102514.07
2019-01-02T17:31:37.895Z,102516.23
2019-01-02T17:36:40.840Z,102519.65
2019-01-02T17:41:43.239Z,102530.81
2019-01-02T17:46:45.437Z,102537.67
2019-01-02T17:51:47.551Z,102534.27
2019-01-02T17:56:50.693Z,102541.13
2019-01-02T18:01:52.898Z,102546.69
2019-01-02T18:06:55.053Z,102553.98
2019-01-02T18:11:57.936Z,102559.56
2019-01-02T18:17:00.329Z,102559.53
2019-01-02T18:22:03.614Z,102565.56
2019-01-02T18:27:06.825Z,102566.84
2019-01-02T18:32:09.728Z,102575.42
2019-01-02T18:37:12.273Z,102573.70
2019-01-02T18:42:14.543Z,102577.56
2019-01-02T18:47:16.711Z,102580.14
2019-01-02T18:52:20.024Z,102586.53
2019-01-02T18:57:22.222Z,102592.52
2019-01-02T19:02:25.137Z,102606.66
2019-01-02T19:07:27.929Z,102607.95
2019-01-02T19:12:30.643Z,102613.51
2019-01-02T19:17:32.901Z,102619.06
2019-01-02T19:22:35.430Z,102627.16
2019-01-02T19:27:37.925Z,102639.56
2019-01-02T19:32:40.879Z,102639.56
2019-01-02T19:37:43.290Z,102645.53
2019-01-02T19:42:45.971Z,102652.80
2019-01-02T19:47:48.349Z,102662.19
2019-01-02T19:52:51.091Z,102655.76
2019-01-02T19:57:53.258Z,102657.45
2019-01-02T20:02:55.715Z,102666.41
2019-01-02T20:07:58.262Z,102668.55
2019-01-02T20:13:00.723Z,102671.50
2019-01-02T20:18:02.921Z,102675.77
2019-01-02T20:23:05.987Z,102668.47
2019-01-02T20:28:08.840Z,102671.89
2019-01-02T20:33:12.008Z,102675.30
2019-01-02T20:38:17.637Z,102671.83
2019-01-02T20:43:37.035Z,102677.37
2019-01-02T20:48:48.154Z,102676.09
2019-01-02T20:53:55.363Z,102673.48
2019-01-02T20:58:58.044Z,102676.48
2019-01-02T21:04:06.414Z,102675.59
2019-01-02T21:09:09.436Z,102664.91
2019-01-02T21:14:11.626Z,102669.13
2019-01-02T21:19:13.765Z,102666.13
2019-01-02T21:24:16.050Z,102665.67
2019-01-02T21:29:18.173Z,102663.08
2019-01-02T21:34:20.562Z,102672.47
2019-01-02T21:39:24.333Z,102669.87
2019-01-02T21:44:26.854Z,102671.55
2019-01-02T21:49:30.011Z,102655.74
2019-01-02T21:54:32.506Z,102668.92
2019-01-02T21:59:34.943Z,102660.77
2019-01-02T22:04:37.289Z,102663.31
2019-01-02T22:09:40.230Z,102668.84
2019-01-02T22:14:42.402Z,102662.83
2019-01-02T22:19:45.166Z,102665.34
2019-01-02T22:24:47.501Z,102667.03
2019-01-02T22:29:49.698Z,102669.58
2019-01-02T22:34:52.425Z,102664.42
2019-01-02T22:39:54.821Z,102669.10
2019-01-02T22:44:57.523Z,102668.64
2019-01-02T22:50:00.420Z,102681.88
2019-01-02T22:55:02.926Z,102681.84
2019-01-02T23:00:17.658Z,102692.93
2019-01-02T23:05:44.022Z,102694.63
2019-01-02T23:11:01.318Z,102692.50
2019-01-02T23:16:16.402Z,102701.03
2019-01-02T23:21:38.178Z,102696.33
2019-01-02T23:26:58.874Z,102706.57
2019-01-02T23:32:53.446Z,102704.41
2019-01-02T23:38:14.720Z,102702.27
2019-01-02T23:43:28.921Z,102715.83
2019-01-02T23:48:40.203Z,102715.39
2019-01-02T23:54:01.471Z,102726.93
2019-01-02T23:59:23.547Z,102725.65
